createdAt,value
2022-12-18T00:00:27.261Z,13.63
2022-12-18T00:03:16.308Z,13.00
2022-12-18T00:05:50.046Z,13.30
2022-12-18T00:08:19.843Z,13.18
2022-12-18T00:10:48.196Z,14.48
2022-12-18T00:13:16.392Z,14.10
2022-12-18T00:15:44.525Z,13.52
2022-12-18T00:18:16.077Z,12.52
2022-12-18T00:20:49.510Z,14.77
2022-12-18T00:23:22.504Z,13.73
2022-12-18T00:25:51.116Z,12.82
2022-12-18T00:28:19.436Z,11.95
2022-12-18T00:30:52.375Z,11.70
2022-12-18T00:33:20.104Z,13.02
2022-12-18T00:35:48.152Z,12.57
2022-12-18T00:38:15.868Z,12.63
2022-12-18T00:40:45.442Z,14.70
2022-12-18T00:43:14.197Z,12.25
2022-12-18T00:45:44.553Z,11.85
2022-12-18T00:48:13.256Z,13.82
2022-12-18T00:50:41.575Z,13.13
2022-12-18T00:53:13.381Z,12.35
2022-12-18T00:55:42.554Z,12.65
2022-12-18T00:58:16.962Z,13.15
2022-12-18T01:00:45.646Z,12.18
2022-12-18T01:03:15.471Z,13.13
2022-12-18T01:05:45.991Z,12.98
2022-12-18T01:08:13.774Z,14.02
2022-12-18T01:10:45.106Z,13.75
2022-12-18T01:13:13.828Z,12.63
2022-12-18T01:15:50.157Z,12.65
2022-12-18T01:18:19.515Z,14.05
2022-12-18T01:20:49.759Z,13.00
2022-12-18T01:23:17.530Z,12.05
2022-12-18T01:25:45.688Z,11.77
2022-12-18T01:28:15.900Z,13.63
2022-12-18T01:30:44.949Z,9.60
2022-12-18T01:33:13.260Z,11.93
2022-12-18T01:35:44.846Z,12.40
2022-12-18T01:38:13.539Z,13.02
2022-12-18T01:40:42.498Z,12.30
2022-12-18T01:43:12.290Z,11.55
2022-12-18T01:45:40.565Z,11.88
2022-12-18T01:48:10.187Z,13.48
2022-12-18T01:50:43.937Z,12.98
2022-12-18T01:53:17.985Z,11.73
2022-12-18T01:55:57.341Z,12.05
2022-12-18T01:58:34.674Z,12.13
2022-12-18T02:01:02.846Z,11.30
2022-12-18T02:03:34.312Z,11.90
2022-12-18T02:06:13.310Z,10.75
2022-12-18T02:08:54.439Z,11.02
2022-12-18T02:14:31.253Z,11.18
2022-12-18T02:17:14.439Z,10.48
2022-12-18T02:20:03.844Z,11.27
2022-12-18T02:22:47.184Z,10.52
2022-12-18T02:25:29.400Z,10.93
2022-12-18T02:28:01.456Z,10.93
2022-12-18T02:30:34.820Z,11.13
2022-12-18T02:33:05.906Z,9.38
2022-12-18T02:38:05.345Z,10.15
2022-12-18T02:40:38.229Z,9.57
2022-12-18T02:43:13.508Z,10.75
2022-12-18T02:45:57.314Z,10.30
2022-12-18T02:48:32.162Z,10.93
2022-12-18T02:51:22.952Z,11.25
2022-12-18T02:54:08.028Z,11.15
2022-12-18T02:56:52.803Z,9.10
2022-12-18T02:59:39.944Z,10.45
2022-12-18T03:02:17.518Z,9.85
2022-12-18T03:04:54.724Z,9.35
2022-12-18T03:07:35.841Z,11.02
2022-12-18T03:10:07.341Z,10.10
2022-12-18T03:12:45.318Z,11.10
2022-12-18T03:15:31.305Z,10.32
2022-12-18T03:18:34.557Z,8.98
2022-12-18T03:21:07.236Z,8.27
2022-12-18T03:23:47.978Z,10.98
2022-12-18T03:26:28.267Z,9.85
2022-12-18T03:29:16.476Z,11.98
2022-12-18T03:31:52.672Z,10.00
2022-12-18T03:34:31.951Z,8.68
2022-12-18T03:37:04.159Z,9.98
2022-12-18T03:39:34.688Z,9.88
2022-12-18T03:42:26.299Z,9.75
2022-12-18T03:45:20.800Z,9.25
2022-12-18T03:48:02.814Z,8.82
2022-12-18T03:50:58.295Z,9.73
2022-12-18T03:53:42.825Z,9.68
2022-12-18T03:56:14.537Z,10.10
2022-12-18T03:58:44.840Z,7.32
2022-12-18T04:01:32.009Z,9.93
2022-12-18T04:04:04.093Z,10.60
2022-12-18T04:06:36.579Z,9.40
2022-12-18T04:09:06.217Z,9.25
2022-12-18T04:11:38.645Z,8.85
2022-12-18T04:14:09.919Z,8.98
2022-12-18T04:16:40.331Z,10.35
2022-12-18T04:19:11.782Z,10.05
2022-12-18T04:21:43.434Z,10.25
2022-12-18T04:24:13.479Z,8.75
2022-12-18T04:26:47.773Z,9.00
2022-12-18T04:29:19.272Z,9.50
2022-12-18T04:31:47.627Z,10.15
2022-12-18T04:34:15.739Z,11.05
2022-12-18T04:36:50.165Z,9.93
2022-12-18T04:39:19.288Z,10.27
2022-12-18T04:41:49.879Z,10.48
2022-12-18T04:44:18.038Z,11.27
2022-12-18T04:46:46.785Z,10.00
2022-12-18T04:49:15.565Z,11.05
2022-12-18T04:51:43.867Z,11.02
2022-12-18T04:54:12.354Z,10.43
2022-12-18T04:56:40.794Z,10.90
2022-12-18T04:59:08.777Z,11.25
2022-12-18T05:01:36.999Z,11.98
2022-12-18T05:04:05.537Z,11.65
2022-12-18T05:06:34.615Z,11.02
2022-12-18T05:09:02.838Z,10.73
2022-12-18T05:11:31.180Z,12.63
2022-12-18T05:13:59.695Z,11.57
2022-12-18T05:16:27.928Z,12.35
2022-12-18T05:18:56.497Z,11.88
2022-12-18T05:21:24.286Z,9.13
2022-12-18T05:23:52.852Z,10.80
2022-12-18T05:26:21.115Z,11.55
2022-12-18T05:28:49.687Z,11.60
2022-12-18T05:31:18.115Z,11.30
2022-12-18T05:33:46.336Z,11.80
2022-12-18T05:36:14.139Z,12.05
2022-12-18T05:38:42.598Z,11.68
2022-12-18T05:41:13.209Z,11.15
2022-12-18T05:43:42.151Z,10.80
2022-12-18T05:46:15.220Z,11.45
2022-12-18T05:48:44.859Z,12.48
2022-12-18T05:51:15.587Z,11.45
2022-12-18T05:53:44.014Z,11.40
2022-12-18T05:56:15.719Z,11.48
2022-12-18T05:58:44.567Z,11.48
2022-12-18T06:01:18.255Z,11.85
2022-12-18T06:03:47.069Z,11.00
2022-12-18T06:06:18.943Z,11.77
2022-12-18T06:08:49.169Z,11.82
2022-12-18T06:11:26.937Z,12.50
2022-12-18T06:13:58.907Z,11.95
2022-12-18T06:16:28.455Z,12.30
2022-12-18T06:19:01.148Z,12.25
2022-12-18T06:21:29.865Z,11.40
2022-12-18T06:23:59.270Z,11.05
2022-12-18T06:26:28.482Z,10.60
2022-12-18T06:28:59.690Z,10.13
2022-12-18T06:31:30.274Z,13.02
2022-12-18T06:33:59.192Z,10.43
2022-12-18T06:36:27.426Z,10.77
2022-12-18T06:38:55.712Z,11.82
2022-12-18T06:41:24.032Z,10.60
2022-12-18T06:43:56.747Z,10.18
2022-12-18T06:46:26.557Z,11.70
2022-12-18T06:48:55.016Z,10.40
2022-12-18T06:51:25.563Z,10.00
2022-12-18T06:53:53.559Z,11.18
2022-12-18T06:56:21.800Z,10.10
2022-12-18T07:01:20.911Z,9.60
2022-12-18T07:03:54.448Z,11.07
2022-12-18T07:06:25.174Z,11.73
2022-12-18T07:08:55.788Z,11.30
2022-12-18T07:11:23.659Z,10.82
2022-12-18T07:13:53.202Z,11.68
2022-12-18T07:16:25.271Z,11.35
2022-12-18T07:18:56.438Z,11.68
2022-12-18T07:21:25.580Z,10.25
2022-12-18T07:23:53.736Z,10.98
2022-12-18T07:26:22.429Z,10.57
2022-12-18T07:28:58.680Z,9.93
2022-12-18T07:31:28.245Z,10.75
2022-12-18T07:33:56.524Z,11.10
2022-12-18T07:36:24.430Z,12.20
2022-12-18T07:38:53.863Z,10.50
2022-12-18T07:41:22.012Z,10.00
2022-12-18T07:43:50.199Z,11.80
2022-12-18T07:46:18.335Z,10.60
2022-12-18T07:48:49.699Z,11.00
2022-12-18T07:51:19.656Z,10.30
2022-12-18T07:53:49.679Z,9.68
2022-12-18T07:56:30.800Z,9.15
2022-12-18T07:59:00.554Z,10.70
2022-12-18T08:01:29.272Z,12.07
2022-12-18T08:03:58.748Z,11.57
2022-12-18T08:06:29.139Z,10.77
2022-12-18T08:08:57.794Z,11.48
2022-12-18T08:11:27.410Z,10.52
2022-12-18T08:13:56.868Z,9.90
2022-12-18T08:16:24.733Z,11.30
2022-12-18T08:18:53.770Z,11.15
2022-12-18T08:21:25.117Z,11.57
2022-12-18T08:23:56.070Z,10.93
2022-12-18T08:26:25.765Z,12.70
2022-12-18T08:28:56.250Z,10.63
2022-12-18T08:31:28.586Z,11.90
2022-12-18T08:33:57.653Z,11.77
2022-12-18T08:36:26.229Z,11.02
2022-12-18T08:38:55.203Z,11.90
2022-12-18T08:41:23.601Z,11.02
2022-12-18T08:44:10.724Z,11.52
2022-12-18T08:46:41.461Z,12.02
2022-12-18T08:49:11.402Z,10.87
2022-12-18T08:51:40.814Z,11.60
2022-12-18T08:54:14.900Z,12.05
2022-12-18T08:56:43.164Z,11.88
2022-12-18T08:59:15.965Z,11.93
2022-12-18T09:01:48.384Z,12.45
2022-12-18T09:04:17.222Z,11.27
2022-12-18T09:06:46.861Z,11.60
2022-12-18T09:09:14.955Z,11.38
2022-12-18T09:11:43.636Z,11.93
2022-12-18T09:14:12.382Z,12.30
2022-12-18T09:16:40.490Z,12.07
2022-12-18T09:19:10.171Z,11.82
2022-12-18T09:21:42.245Z,11.88
2022-12-18T09:24:15.240Z,13.30
2022-12-18T09:26:46.885Z,10.52
2022-12-18T09:29:18.948Z,12.05
2022-12-18T09:31:47.633Z,12.90
2022-12-18T09:34:15.456Z,12.68
2022-12-18T09:36:46.340Z,11.77
2022-12-18T09:39:15.835Z,11.88
2022-12-18T09:41:57.934Z,10.77
2022-12-18T09:44:45.754Z,11.65
2022-12-18T09:47:25.754Z,12.23
2022-12-18T09:50:10.522Z,11.40
2022-12-18T09:52:47.670Z,12.45
2022-12-18T09:55:35.112Z,10.65
2022-12-18T09:58:11.329Z,11.05
2022-12-18T10:00:43.722Z,10.25
2022-12-18T10:03:15.851Z,12.18
2022-12-18T10:06:16.543Z,10.82
2022-12-18T10:08:44.630Z,10.52
2022-12-18T10:11:34.079Z,10.45
2022-12-18T10:14:35.176Z,11.95
2022-12-18T10:17:22.491Z,10.27
2022-12-18T10:20:23.905Z,11.40
2022-12-18T10:22:57.797Z,11.00
2022-12-18T10:25:40.117Z,10.52
2022-12-18T10:28:15.353Z,11.55
2022-12-18T10:30:44.532Z,10.23
2022-12-18T10:33:22.054Z,11.32
2022-12-18T10:35:52.246Z,9.80
2022-12-18T10:38:20.277Z,10.43
2022-12-18T10:41:05.591Z,10.90
2022-12-18T10:43:37.863Z,10.73
2022-12-18T10:46:18.787Z,10.68
2022-12-18T10:48:49.964Z,10.05
2022-12-18T10:51:23.268Z,10.90
2022-12-18T10:54:22.317Z,10.82
2022-12-18T10:56:50.761Z,10.63
2022-12-18T10:59:19.880Z,9.77
2022-12-18T11:01:50.929Z,10.07
2022-12-18T11:04:31.283Z,10.70
2022-12-18T11:07:05.671Z,12.10
2022-12-18T11:09:35.268Z,11.63
2022-12-18T11:12:20.130Z,11.20
2022-12-18T11:14:51.587Z,11.63
2022-12-18T11:17:32.699Z,11.95
2022-12-18T11:20:04.355Z,10.75
2022-12-18T11:28:00.516Z,12.93
2022-12-18T11:30:39.157Z,14.00
2022-12-18T11:33:19.883Z,12.20
2022-12-18T11:35:58.869Z,12.50
2022-12-18T11:38:40.644Z,11.70
2022-12-18T11:41:50.305Z,12.35
2022-12-18T11:44:33.716Z,12.90
2022-12-18T11:47:09.471Z,12.20
2022-12-18T11:49:41.817Z,12.77
2022-12-18T11:52:32.627Z,13.00
2022-12-18T11:55:06.640Z,11.20
2022-12-18T11:57:56.240Z,12.30
2022-12-18T12:00:24.915Z,12.90
2022-12-18T12:03:25.209Z,11.73
2022-12-18T12:06:19.077Z,11.18
2022-12-18T12:08:59.459Z,13.05
2022-12-18T12:11:51.669Z,12.02
2022-12-18T12:14:48.164Z,13.30
2022-12-18T12:17:35.471Z,11.85
2022-12-18T12:20:26.023Z,12.15
2022-12-18T12:23:27.948Z,12.45
2022-12-18T12:26:37.454Z,12.95
2022-12-18T12:29:29.147Z,11.13
2022-12-18T12:32:00.922Z,11.20
2022-12-18T12:35:01.004Z,11.98
2022-12-18T12:37:33.880Z,11.48
2022-12-18T12:40:15.327Z,11.15
2022-12-18T12:43:14.586Z,11.55
2022-12-18T12:46:02.283Z,9.98
2022-12-18T12:48:51.205Z,11.25
2022-12-18T12:51:26.050Z,11.05
2022-12-18T12:53:57.664Z,11.77
2022-12-18T12:56:36.833Z,12.43
2022-12-18T12:59:28.141Z,14.65
2022-12-18T13:02:11.745Z,12.00
2022-12-18T13:04:58.965Z,11.80
2022-12-18T13:07:42.152Z,11.32
2022-12-18T13:10:23.801Z,10.85
2022-12-18T13:12:58.199Z,11.35
2022-12-18T13:15:42.392Z,12.13
2022-12-18T13:18:10.389Z,9.73
2022-12-18T13:20:41.559Z,10.85
2022-12-18T13:25:58.749Z,9.35
2022-12-18T13:28:49.083Z,10.57
2022-12-18T13:31:42.564Z,10.18
2022-12-18T13:34:26.252Z,9.00
2022-12-18T13:37:00.523Z,9.82
2022-12-18T13:39:35.964Z,10.18
2022-12-18T13:42:07.588Z,10.00
2022-12-18T13:44:43.072Z,9.38
2022-12-18T13:47:41.121Z,9.23
2022-12-18T13:50:28.588Z,8.77
2022-12-18T13:53:00.791Z,8.75
2022-12-18T13:55:30.267Z,9.20
2022-12-18T13:58:07.713Z,8.15
2022-12-18T14:00:43.198Z,8.05
2022-12-18T14:03:27.091Z,8.05
2022-12-18T14:06:05.754Z,7.75
2022-12-18T14:08:41.527Z,8.95
2022-12-18T14:11:23.277Z,8.50
2022-12-18T14:13:51.641Z,8.60
2022-12-18T14:16:20.438Z,8.95
2022-12-18T14:19:05.000Z,8.57
2022-12-18T14:21:48.928Z,7.47
2022-12-18T14:24:26.214Z,7.88
2022-12-18T14:26:54.793Z,7.43
2022-12-18T14:29:31.989Z,7.78
2022-12-18T14:32:21.146Z,9.27
2022-12-18T14:34:51.480Z,8.57
2022-12-18T14:37:34.505Z,8.77
2022-12-18T14:40:11.414Z,8.35
2022-12-18T14:42:41.919Z,7.90
2022-12-18T14:45:47.281Z,7.63
2022-12-18T14:48:43.649Z,7.35
2022-12-18T14:51:18.163Z,7.40
2022-12-18T14:54:03.026Z,8.00
2022-12-18T14:56:37.059Z,7.97
2022-12-18T14:59:25.726Z,7.47
2022-12-18T15:02:06.126Z,8.05
2022-12-18T15:04:43.660Z,7.18
2022-12-18T15:07:17.609Z,7.82
2022-12-18T15:10:11.733Z,6.45
2022-12-18T15:12:42.772Z,7.68
2022-12-18T15:15:38.904Z,7.00
2022-12-18T15:18:12.166Z,6.68
2022-12-18T15:21:41.114Z,7.20
2022-12-18T15:24:49.484Z,8.27
2022-12-18T15:27:42.008Z,7.15
2022-12-18T15:30:38.657Z,6.68
2022-12-18T15:33:48.700Z,7.32
2022-12-18T15:36:39.332Z,7.93
2022-12-18T15:39:25.635Z,7.43
2022-12-18T15:42:22.278Z,6.65
2022-12-18T15:44:59.973Z,7.10
2022-12-18T15:47:33.819Z,6.80
2022-12-18T15:50:24.265Z,6.78
2022-12-18T15:52:59.499Z,6.97
2022-12-18T15:56:05.772Z,8.30
2022-12-18T15:58:43.150Z,6.85
2022-12-18T16:01:56.453Z,6.85
2022-12-18T16:04:38.004Z,6.47
2022-12-18T16:07:18.130Z,6.22
2022-12-18T16:10:02.306Z,7.50
2022-12-18T16:13:10.275Z,6.55
2022-12-18T16:16:05.880Z,5.20
2022-12-18T16:18:53.709Z,6.28
2022-12-18T16:21:58.051Z,4.90
2022-12-18T16:24:54.969Z,10.40
2022-12-18T16:27:44.560Z,4.13
2022-12-18T16:30:29.431Z,4.90
2022-12-18T16:33:50.504Z,4.93
2022-12-18T16:36:22.090Z,4.07
2022-12-18T16:39:13.002Z,3.70
2022-12-18T16:41:49.724Z,3.50
2022-12-18T16:44:26.351Z,3.90
2022-12-18T16:46:57.038Z,3.85
2022-12-18T16:52:01.852Z,3.47
2022-12-18T16:54:35.695Z,4.80
2022-12-18T16:57:06.970Z,3.70
2022-12-18T16:59:39.632Z,3.90
2022-12-18T17:02:23.377Z,3.83
2022-12-18T17:04:58.089Z,5.00
2022-12-18T17:10:00.471Z,5.10
2022-12-18T17:12:29.722Z,4.53
2022-12-18T17:15:01.636Z,4.55
2022-12-18T17:17:30.859Z,4.30
2022-12-18T17:20:00.076Z,4.30
2022-12-18T17:22:29.730Z,3.97
2022-12-18T17:25:24.650Z,4.30
2022-12-18T17:27:53.979Z,4.10
2022-12-18T17:30:25.726Z,4.05
2022-12-18T17:33:00.601Z,3.93
2022-12-18T17:35:32.544Z,4.18
2022-12-18T17:38:51.159Z,4.32
2022-12-18T17:41:34.847Z,3.85
2022-12-18T17:44:27.177Z,3.85
2022-12-18T17:47:48.776Z,3.85
2022-12-18T17:50:30.445Z,3.33
2022-12-18T17:53:05.499Z,3.50
2022-12-18T17:55:35.754Z,5.20
2022-12-18T17:58:09.556Z,3.92
2022-12-18T18:00:41.425Z,3.67
2022-12-18T18:03:10.812Z,6.03
2022-12-18T18:05:44.017Z,3.90
2022-12-18T18:08:15.832Z,3.92
2022-12-18T18:10:52.138Z,3.97
2022-12-18T18:13:50.438Z,4.32
2022-12-18T18:16:23.563Z,4.00
2022-12-18T18:18:59.337Z,3.55
2022-12-18T18:21:33.065Z,3.53
2022-12-18T18:24:17.127Z,3.20
2022-12-18T18:26:50.672Z,3.53
2022-12-18T18:29:42.302Z,4.10
2022-12-18T18:32:21.651Z,4.30
2022-12-18T18:34:56.891Z,4.38
2022-12-18T18:37:43.003Z,4.50
2022-12-18T18:40:35.346Z,3.97
2022-12-18T18:43:23.545Z,4.15
2022-12-18T18:46:29.252Z,4.35
2022-12-18T18:49:19.713Z,4.68
2022-12-18T18:52:21.169Z,5.72
2022-12-18T18:55:12.105Z,3.80
2022-12-18T18:57:59.698Z,4.20
2022-12-18T19:00:41.124Z,4.10
2022-12-18T19:03:16.400Z,4.43
2022-12-18T19:05:54.224Z,4.05
2022-12-18T19:08:37.060Z,4.43
2022-12-18T19:11:42.407Z,3.90
2022-12-18T19:14:15.139Z,4.20
2022-12-18T19:16:55.334Z,4.10
2022-12-18T19:19:59.511Z,4.18
2022-12-18T19:23:14.381Z,3.88
2022-12-18T19:26:27.685Z,4.25
2022-12-18T19:29:53.973Z,4.10
2022-12-18T19:36:28.998Z,4.53
2022-12-18T19:39:31.493Z,4.18
2022-12-18T19:42:35.267Z,4.28
2022-12-18T19:45:42.590Z,4.28
2022-12-18T19:48:30.054Z,4.20
2022-12-18T19:51:56.781Z,3.47
2022-12-18T19:55:05.587Z,4.00
2022-12-18T19:57:50.243Z,4.57
2022-12-18T20:01:20.530Z,4.80
2022-12-18T20:08:48.409Z,4.55
2022-12-18T20:11:32.660Z,4.10
2022-12-18T20:14:23.577Z,4.55
2022-12-18T20:20:36.817Z,5.10
2022-12-18T20:32:02.502Z,4.30
2022-12-18T20:39:28.969Z,4.65
2022-12-18T20:45:43.952Z,4.32
2022-12-18T20:48:28.393Z,4.65
2022-12-18T20:51:15.682Z,4.80
2022-12-18T20:54:11.785Z,5.03
2022-12-18T20:56:45.606Z,4.00
2022-12-18T21:00:08.267Z,4.13
2022-12-18T21:03:11.278Z,4.93
2022-12-18T21:06:07.128Z,4.50
2022-12-18T21:08:53.873Z,3.60
2022-12-18T21:11:42.589Z,2.92
2022-12-18T21:14:37.178Z,2.95
2022-12-18T21:17:40.130Z,2.88
2022-12-18T21:20:20.423Z,3.17
2022-12-18T21:22:57.355Z,3.15
2022-12-18T21:25:38.870Z,2.88
2022-12-18T21:28:28.397Z,2.95
2022-12-18T21:31:00.761Z,3.25
2022-12-18T21:33:33.303Z,3.30
2022-12-18T21:36:23.957Z,2.87
2022-12-18T21:39:36.312Z,3.13
2022-12-18T21:42:31.037Z,2.70
2022-12-18T21:45:04.206Z,2.72
2022-12-18T21:47:36.268Z,2.67
2022-12-18T21:50:29.845Z,2.67
2022-12-18T21:53:20.031Z,2.92
2022-12-18T21:56:04.949Z,3.17
2022-12-18T21:59:10.425Z,2.92
2022-12-18T22:01:53.854Z,2.40
2022-12-18T22:04:33.904Z,2.42
2022-12-18T22:07:18.104Z,2.70
2022-12-18T22:10:28.909Z,2.47
2022-12-18T22:13:30.620Z,2.60
2022-12-18T22:16:28.322Z,2.58
2022-12-18T22:19:41.103Z,2.17
2022-12-18T22:22:39.838Z,2.45
2022-12-18T22:29:10.415Z,2.30
2022-12-18T22:32:09.345Z,2.25
2022-12-18T22:35:15.879Z,2.08
2022-12-18T22:42:27.300Z,2.03
2022-12-18T22:45:36.305Z,2.08
2022-12-18T22:49:04.698Z,2.22
2022-12-18T22:53:10.581Z,2.05
2022-12-18T22:56:32.176Z,2.33
2022-12-18T22:59:49.968Z,2.40
2022-12-18T23:03:23.550Z,2.33
2022-12-18T23:06:50.812Z,2.40
2022-12-18T23:09:29.380Z,2.63
2022-12-18T23:15:44.630Z,2.53
2022-12-18T23:18:28.912Z,2.80
2022-12-18T23:21:17.174Z,2.60
2022-12-18T23:25:28.234Z,2.95
2022-12-18T23:28:41.277Z,2.60
2022-12-18T23:36:04.778Z,2.70
2022-12-18T23:39:33.527Z,2.95
2022-12-18T23:42:10.197Z,2.22
2022-12-18T23:45:23.043Z,2.58
2022-12-18T23:48:21.598Z,2.50
2022-12-18T23:51:32.374Z,2.22
2022-12-18T23:54:21.094Z,2.38
2022-12-18T23:57:11.652Z,2.07
